createdAt,value
2017-12-02T00:00:15.561Z,14.70
2017-12-02T00:01:22.421Z,14.00
2017-12-02T00:02:29.160Z,14.60
2017-12-02T00:03:35.900Z,14.30
2017-12-02T00:04:42.617Z,14.80
2017-12-02T00:05:49.362Z,14.40
2017-12-02T00:06:56.143Z,14.90
2017-12-02T00:08:02.875Z,13.80
2017-12-02T00:09:09.628Z,14.70
2017-12-02T00:10:16.354Z,14.20
2017-12-02T00:11:23.139Z,13.90
2017-12-02T00:12:29.878Z,14.30
2017-12-02T00:13:36.596Z,14.00
2017-12-02T00:14:43.324Z,14.10
2017-12-02T00:15:50.040Z,14.00
2017-12-02T00:16:56.760Z,14.40
2017-12-02T00:18:03.582Z,14.20
2017-12-02T00:19:10.314Z,14.70
2017-12-02T00:20:17.061Z,14.40
2017-12-02T00:21:24.001Z,13.80
2017-12-02T00:22:30.773Z,13.20
2017-12-02T00:23:37.592Z,13.90
2017-12-02T00:24:44.425Z,14.90
2017-12-02T00:25:51.137Z,14.50
2017-12-02T00:26:57.872Z,14.40
2017-12-02T00:28:04.628Z,14.10
2017-12-02T00:29:11.494Z,14.50
2017-12-02T00:30:18.225Z,14.60
2017-12-02T00:31:24.949Z,14.20
2017-12-02T00:32:31.720Z,14.50
2017-12-02T00:33:38.579Z,14.10
2017-12-02T00:34:45.294Z,13.90
2017-12-02T00:35:52.016Z,13.40
2017-12-02T00:36:58.784Z,14.90
2017-12-02T00:38:05.631Z,13.60
2017-12-02T00:39:12.415Z,14.30
2017-12-02T00:40:19.229Z,12.60
2017-12-02T00:41:26.066Z,14.30
2017-12-02T00:42:32.844Z,13.50
2017-12-02T00:43:39.561Z,14.00
2017-12-02T00:44:46.316Z,14.10
2017-12-02T00:45:53.171Z,13.30
2017-12-02T00:46:59.968Z,13.70
2017-12-02T00:48:06.717Z,14.20
2017-12-02T00:49:13.460Z,14.20
2017-12-02T00:50:20.292Z,14.70
2017-12-02T00:51:27.023Z,14.40
2017-12-02T00:52:33.735Z,13.60
2017-12-02T00:53:40.553Z,14.70
2017-12-02T00:54:47.408Z,14.40
2017-12-02T00:55:54.129Z,14.50
2017-12-02T00:57:00.869Z,15.30
2017-12-02T00:58:07.596Z,13.80
2017-12-02T00:59:14.334Z,15.10
2017-12-02T01:00:21.158Z,13.90
2017-12-02T01:01:27.916Z,13.20
2017-12-02T01:02:34.652Z,12.80
2017-12-02T01:03:41.360Z,12.90
2017-12-02T01:04:48.077Z,13.70
2017-12-02T01:05:54.905Z,13.70
2017-12-02T01:07:01.631Z,13.70
2017-12-02T01:08:08.745Z,14.00
2017-12-02T01:09:15.519Z,13.10
2017-12-02T01:10:22.243Z,13.20
2017-12-02T01:11:29.017Z,12.60
2017-12-02T01:12:35.888Z,12.60
2017-12-02T01:13:42.624Z,12.80
2017-12-02T01:14:49.423Z,13.00
2017-12-02T01:15:56.252Z,12.80
2017-12-02T01:17:03.037Z,12.50
2017-12-02T01:18:09.834Z,12.20
2017-12-02T01:19:16.680Z,12.60
2017-12-02T01:20:23.388Z,12.90
2017-12-02T01:21:30.136Z,12.90
2017-12-02T01:22:36.900Z,13.30
2017-12-02T01:23:43.611Z,13.10
2017-12-02T01:24:50.425Z,13.20
2017-12-02T01:25:57.200Z,11.70
2017-12-02T01:27:03.964Z,12.20
2017-12-02T01:28:10.693Z,10.80
2017-12-02T01:29:17.496Z,10.50
2017-12-02T01:30:24.252Z,12.50
2017-12-02T01:31:30.971Z,12.20
2017-12-02T01:32:37.720Z,11.50
2017-12-02T01:33:44.438Z,12.00
2017-12-02T01:34:51.212Z,11.40
2017-12-02T01:35:57.936Z,11.10
2017-12-02T01:37:04.718Z,12.30
2017-12-02T01:38:11.424Z,11.90
2017-12-02T01:39:18.128Z,12.60
2017-12-02T01:40:24.891Z,10.90
2017-12-02T01:41:31.596Z,11.70
2017-12-02T01:42:38.324Z,12.40
2017-12-02T01:43:45.154Z,12.10
2017-12-02T01:44:51.955Z,11.70
2017-12-02T01:45:58.675Z,11.30
2017-12-02T01:47:05.422Z,11.90
2017-12-02T01:48:12.152Z,11.80
2017-12-02T01:49:18.989Z,11.50
2017-12-02T01:50:25.705Z,12.30
2017-12-02T01:51:32.412Z,11.40
2017-12-02T01:52:39.173Z,11.30
2017-12-02T01:53:45.888Z,12.00
2017-12-02T01:54:52.596Z,11.80
2017-12-02T01:55:59.372Z,11.00
2017-12-02T01:57:06.081Z,11.50
2017-12-02T01:58:12.844Z,11.40
2017-12-02T01:59:19.549Z,12.00
2017-12-02T02:00:26.267Z,12.70
2017-12-02T02:01:33.269Z,11.50
2017-12-02T02:02:40.153Z,11.70
2017-12-02T02:03:46.876Z,11.60
2017-12-02T02:04:53.616Z,11.30
2017-12-02T02:06:00.445Z,10.70
2017-12-02T02:07:07.184Z,10.80
2017-12-02T02:08:13.928Z,10.40
2017-12-02T02:09:20.661Z,11.70
2017-12-02T02:10:27.381Z,10.80
2017-12-02T02:11:34.085Z,9.60
2017-12-02T02:12:40.877Z,9.80
2017-12-02T02:13:47.591Z,10.50
2017-12-02T02:14:54.311Z,11.10
2017-12-02T02:16:01.061Z,10.20
2017-12-02T02:17:07.764Z,10.70
2017-12-02T02:18:14.485Z,10.30
2017-12-02T02:19:21.263Z,10.40
2017-12-02T02:20:27.984Z,10.70
2017-12-02T02:21:34.716Z,10.80
2017-12-02T02:22:41.434Z,10.40
2017-12-02T02:23:48.193Z,10.20
2017-12-02T02:24:55.016Z,10.40
2017-12-02T02:26:01.776Z,11.30
2017-12-02T02:27:08.522Z,11.30
2017-12-02T02:28:15.232Z,11.30
2017-12-02T02:29:22.087Z,11.20
2017-12-02T02:30:28.873Z,10.80
2017-12-02T02:31:35.605Z,11.00
2017-12-02T02:32:42.325Z,10.60
2017-12-02T02:33:49.135Z,9.90
2017-12-02T02:34:55.860Z,9.80
2017-12-02T02:36:02.614Z,10.20
2017-12-02T02:37:09.336Z,9.60
2017-12-02T02:38:16.044Z,9.40
2017-12-02T02:39:22.985Z,10.20
2017-12-02T02:40:29.719Z,9.90
2017-12-02T02:41:36.429Z,10.00
2017-12-02T02:42:43.129Z,9.90
2017-12-02T02:43:49.928Z,9.50
2017-12-02T02:44:56.712Z,10.20
2017-12-02T02:46:03.412Z,10.00
2017-12-02T02:47:10.168Z,9.40
2017-12-02T02:48:17.133Z,9.60
2017-12-02T02:49:23.843Z,10.10
2017-12-02T02:50:30.597Z,8.90
2017-12-02T02:51:37.292Z,9.50
2017-12-02T02:52:44.083Z,9.30
2017-12-02T02:53:50.783Z,10.20
2017-12-02T02:54:57.537Z,9.30
2017-12-02T02:56:04.465Z,9.60
2017-12-02T02:57:11.206Z,8.90
2017-12-02T02:58:17.984Z,9.10
2017-12-02T02:59:24.796Z,8.10
2017-12-02T03:00:31.525Z,9.20
2017-12-02T03:01:38.296Z,8.80
2017-12-02T03:02:44.989Z,8.40
2017-12-02T03:03:51.688Z,8.10
2017-12-02T03:04:58.404Z,7.90
2017-12-02T03:06:05.149Z,7.30
2017-12-02T03:07:12.004Z,8.00
2017-12-02T03:08:18.824Z,7.50
2017-12-02T03:09:25.562Z,8.50
2017-12-02T03:10:32.505Z,7.90
2017-12-02T03:11:39.364Z,7.60
2017-12-02T03:12:46.260Z,7.60
2017-12-02T03:13:53.068Z,7.70
2017-12-02T03:14:59.909Z,7.80
2017-12-02T03:16:06.753Z,7.30
2017-12-02T03:17:13.546Z,6.90
2017-12-02T03:18:20.365Z,7.10
2017-12-02T03:19:27.183Z,7.50
2017-12-02T03:20:33.985Z,7.60
2017-12-02T03:21:40.805Z,7.80
2017-12-02T03:22:47.604Z,8.30
2017-12-02T03:23:54.360Z,7.10
2017-12-02T03:25:01.140Z,6.90
2017-12-02T03:26:08.011Z,7.10
2017-12-02T03:27:14.841Z,6.90
2017-12-02T03:28:21.609Z,6.80
2017-12-02T03:29:28.440Z,6.40
2017-12-02T03:30:35.193Z,7.00
2017-12-02T03:31:41.996Z,7.20
2017-12-02T03:32:48.889Z,7.20
2017-12-02T03:33:55.680Z,6.90
2017-12-02T03:35:02.421Z,6.80
2017-12-02T03:36:09.288Z,6.70
2017-12-02T03:37:16.094Z,7.30
2017-12-02T03:38:22.904Z,7.00
2017-12-02T03:39:29.711Z,7.20
2017-12-02T03:40:36.484Z,6.60
2017-12-02T03:41:43.337Z,7.30
2017-12-02T03:42:50.184Z,7.10
2017-12-02T03:43:57.049Z,6.90
2017-12-02T03:45:03.945Z,6.50
2017-12-02T03:46:10.769Z,6.90
2017-12-02T03:47:17.557Z,6.80
2017-12-02T03:48:24.396Z,6.80
2017-12-02T03:49:31.165Z,7.30
2017-12-02T03:50:38.009Z,7.50
2017-12-02T03:51:44.838Z,6.90
2017-12-02T03:52:51.662Z,6.80
2017-12-02T03:53:58.480Z,6.50
2017-12-02T03:55:05.252Z,6.90
2017-12-02T03:56:12.040Z,6.80
2017-12-02T03:57:18.828Z,7.00
2017-12-02T03:58:25.709Z,6.90
2017-12-02T03:59:32.513Z,7.90
2017-12-02T04:00:39.480Z,6.40
2017-12-02T04:01:46.505Z,6.90
2017-12-02T04:02:53.297Z,6.30
2017-12-02T04:04:00.213Z,6.90
2017-12-02T04:05:07.092Z,6.70
2017-12-02T04:06:13.799Z,6.60
2017-12-02T04:07:20.649Z,6.30
2017-12-02T04:08:27.535Z,7.10
2017-12-02T04:09:34.312Z,7.10
2017-12-02T04:10:41.103Z,7.00
2017-12-02T04:11:47.984Z,6.00
2017-12-02T04:12:54.860Z,6.40
2017-12-02T04:14:01.748Z,6.10
2017-12-02T04:15:08.613Z,7.00
2017-12-02T04:16:15.509Z,7.00
2017-12-02T04:17:22.273Z,6.40
2017-12-02T04:18:29.141Z,6.20
2017-12-02T04:19:35.952Z,6.60
2017-12-02T04:20:42.745Z,7.00
2017-12-02T04:21:49.583Z,6.50
2017-12-02T04:22:56.417Z,6.40
2017-12-02T04:24:03.216Z,6.60
2017-12-02T04:25:10.133Z,6.70
2017-12-02T04:26:17.053Z,7.00
2017-12-02T04:27:23.921Z,7.10
2017-12-02T04:28:30.715Z,7.20
2017-12-02T04:29:37.521Z,6.10
2017-12-02T04:30:44.356Z,6.30
2017-12-02T04:31:51.160Z,6.40
2017-12-02T04:32:58.076Z,6.60
2017-12-02T04:34:04.817Z,7.20
2017-12-02T04:35:11.628Z,7.10
2017-12-02T04:36:18.469Z,6.90
2017-12-02T04:37:25.213Z,6.80
2017-12-02T04:38:32.075Z,7.40
2017-12-02T04:39:38.874Z,6.50
2017-12-02T04:40:45.664Z,7.30
2017-12-02T04:41:52.624Z,6.80
2017-12-02T04:42:59.380Z,6.70
2017-12-02T04:44:06.160Z,7.10
2017-12-02T04:45:13.043Z,7.20
2017-12-02T04:46:19.800Z,6.40
2017-12-02T04:47:26.620Z,6.90
2017-12-02T04:48:33.426Z,6.50
2017-12-02T04:49:40.224Z,6.10
2017-12-02T04:50:47.030Z,5.80
2017-12-02T04:51:53.828Z,6.50
2017-12-02T04:53:00.557Z,6.50
2017-12-02T04:54:07.324Z,5.60
2017-12-02T04:55:14.069Z,6.30
2017-12-02T04:56:20.834Z,7.10
2017-12-02T04:57:27.701Z,7.00
2017-12-02T04:58:34.471Z,6.40
2017-12-02T04:59:41.260Z,7.00
2017-12-02T05:00:48.071Z,7.50
2017-12-02T05:01:54.890Z,7.10
2017-12-02T05:03:01.692Z,7.40
2017-12-02T05:04:08.509Z,6.80
2017-12-02T05:05:15.281Z,6.90
2017-12-02T05:06:22.096Z,6.70
2017-12-02T05:07:28.880Z,6.80
2017-12-02T05:08:35.688Z,6.30
2017-12-02T05:09:42.500Z,6.30
2017-12-02T05:10:49.387Z,6.70
2017-12-02T05:11:56.213Z,6.60
2017-12-02T05:13:03.001Z,6.50
2017-12-02T05:14:09.836Z,6.80
2017-12-02T05:15:16.640Z,7.20
2017-12-02T05:16:23.532Z,6.60
2017-12-02T05:17:30.297Z,7.30
2017-12-02T05:18:37.176Z,6.60
2017-12-02T05:19:43.940Z,6.90
2017-12-02T05:20:50.755Z,7.10
2017-12-02T05:21:57.611Z,7.40
2017-12-02T05:23:04.476Z,6.70
2017-12-02T05:24:11.396Z,6.40
2017-12-02T05:25:18.175Z,6.50
2017-12-02T05:26:24.932Z,6.20
2017-12-02T05:27:31.828Z,6.60
2017-12-02T05:28:38.624Z,6.60
2017-12-02T05:29:45.427Z,6.40
2017-12-02T05:30:52.263Z,7.40
2017-12-02T05:31:59.013Z,6.40
2017-12-02T05:33:05.814Z,6.60
2017-12-02T05:34:12.700Z,6.80
2017-12-02T05:35:19.512Z,6.70
2017-12-02T05:36:26.335Z,6.90
2017-12-02T05:37:33.165Z,6.50
2017-12-02T05:38:39.972Z,5.90
2017-12-02T05:39:46.797Z,6.50
2017-12-02T05:40:53.593Z,6.30
2017-12-02T05:42:00.369Z,7.20
2017-12-02T05:43:07.273Z,6.20
2017-12-02T05:44:14.000Z,6.00
2017-12-02T05:45:20.722Z,6.60
2017-12-02T05:46:27.519Z,7.00
2017-12-02T05:47:34.316Z,6.70
2017-12-02T05:48:41.144Z,7.00
2017-12-02T05:49:47.888Z,6.60
2017-12-02T05:50:54.691Z,6.00
2017-12-02T05:52:01.497Z,7.10
2017-12-02T05:53:08.285Z,6.60
2017-12-02T05:54:15.084Z,6.70
2017-12-02T05:55:21.923Z,6.60
2017-12-02T05:56:28.704Z,6.80
2017-12-02T05:57:35.496Z,6.90
2017-12-02T05:58:42.384Z,7.40
2017-12-02T05:59:49.297Z,7.00
2017-12-02T06:00:56.095Z,7.40
2017-12-02T06:02:02.864Z,7.00
2017-12-02T06:03:09.765Z,7.60
2017-12-02T06:04:16.567Z,6.50
2017-12-02T06:05:23.535Z,7.10
2017-12-02T06:06:30.368Z,7.70
2017-12-02T06:07:37.144Z,7.20
2017-12-02T06:08:43.980Z,7.20
2017-12-02T06:09:50.793Z,7.20
2017-12-02T06:10:57.680Z,6.80
2017-12-02T06:12:04.593Z,7.00
2017-12-02T06:13:11.407Z,6.90
2017-12-02T06:14:18.234Z,7.70
2017-12-02T06:15:25.033Z,7.60
2017-12-02T06:16:31.829Z,7.30
2017-12-02T06:17:38.837Z,7.00
2017-12-02T06:18:45.651Z,6.90
2017-12-02T06:19:52.471Z,7.10
2017-12-02T06:20:59.267Z,6.90
2017-12-02T06:22:06.096Z,6.80
2017-12-02T06:23:12.872Z,6.70
2017-12-02T06:24:19.719Z,6.60
2017-12-02T06:25:26.499Z,6.90
2017-12-02T06:26:33.271Z,7.40
2017-12-02T06:27:40.255Z,7.00
2017-12-02T06:28:47.129Z,6.90
2017-12-02T06:29:53.961Z,6.80
2017-12-02T06:31:01.308Z,6.80
2017-12-02T06:32:07.729Z,7.30
2017-12-02T06:33:14.612Z,7.30
2017-12-02T06:34:21.384Z,7.90
2017-12-02T06:35:29.251Z,7.90
2017-12-02T06:36:35.052Z,8.40
2017-12-02T06:37:41.976Z,10.60
2017-12-02T06:38:48.788Z,10.20
2017-12-02T06:39:55.789Z,10.40
2017-12-02T06:41:02.547Z,10.70
2017-12-02T06:42:09.379Z,11.90
2017-12-02T06:43:16.235Z,11.90
2017-12-02T06:44:23.100Z,12.00
2017-12-02T06:45:30.025Z,12.00
2017-12-02T06:46:36.856Z,10.40
2017-12-02T06:47:43.693Z,7.20
2017-12-02T06:48:50.553Z,7.70
2017-12-02T06:49:57.616Z,7.60
2017-12-02T06:51:04.421Z,7.30
2017-12-02T06:52:11.229Z,7.50
2017-12-02T06:53:18.032Z,7.60
2017-12-02T06:54:24.809Z,7.50
2017-12-02T06:55:31.586Z,8.00
2017-12-02T06:56:38.360Z,7.60
2017-12-02T06:57:45.116Z,7.70
2017-12-02T06:58:51.909Z,8.60
2017-12-02T06:59:58.679Z,8.50
2017-12-02T07:01:05.525Z,10.60
2017-12-02T07:02:12.392Z,14.80
2017-12-02T07:03:19.316Z,15.80
2017-12-02T07:04:26.145Z,14.50
2017-12-02T07:05:32.952Z,13.70
2017-12-02T07:06:39.840Z,9.00
2017-12-02T07:07:46.673Z,9.60
2017-12-02T07:08:53.556Z,8.60
2017-12-02T07:10:00.406Z,9.40
2017-12-02T07:11:07.323Z,9.00
2017-12-02T07:12:14.160Z,10.50
2017-12-02T07:13:20.968Z,16.70
2017-12-02T07:14:27.769Z,14.90
2017-12-02T07:15:34.595Z,15.20
2017-12-02T07:16:41.379Z,16.80
2017-12-02T07:17:48.201Z,14.00
2017-12-02T07:18:55.065Z,10.40
2017-12-02T07:20:01.965Z,10.50
2017-12-02T07:21:08.968Z,12.10
2017-12-02T07:22:15.825Z,11.30
2017-12-02T07:23:22.637Z,13.70
2017-12-02T07:24:29.564Z,13.20
2017-12-02T07:25:36.337Z,15.40
2017-12-02T07:26:43.199Z,18.20
2017-12-02T07:27:50.032Z,18.50
2017-12-02T07:28:56.843Z,17.10
2017-12-02T07:30:03.629Z,15.80
2017-12-02T07:31:10.469Z,14.70
2017-12-02T07:32:17.321Z,14.50
2017-12-02T07:33:24.145Z,16.10
2017-12-02T07:34:30.933Z,14.60
2017-12-02T07:35:37.716Z,15.10
2017-12-02T07:36:44.533Z,16.90
2017-12-02T07:37:51.364Z,17.10
2017-12-02T07:38:58.147Z,17.20
2017-12-02T07:40:05.005Z,17.20
2017-12-02T07:41:11.857Z,17.50
2017-12-02T07:42:18.646Z,15.50
2017-12-02T07:43:25.740Z,15.30
2017-12-02T07:44:32.569Z,16.90
2017-12-02T07:45:39.399Z,16.40
2017-12-02T07:46:46.157Z,16.60
2017-12-02T07:47:52.884Z,15.80
2017-12-02T07:48:59.677Z,16.20
2017-12-02T07:50:06.485Z,14.90
2017-12-02T07:51:13.287Z,16.60
2017-12-02T07:52:20.053Z,16.80
2017-12-02T07:53:26.921Z,14.70
2017-12-02T07:54:33.752Z,13.90
2017-12-02T07:55:40.584Z,13.40
2017-12-02T07:56:47.452Z,14.00
2017-12-02T07:57:54.260Z,13.80
2017-12-02T07:59:01.034Z,13.40
2017-12-02T08:00:07.877Z,12.60
2017-12-02T08:01:14.996Z,10.20
2017-12-02T08:02:21.822Z,11.90
2017-12-02T08:03:28.629Z,11.70
2017-12-02T08:04:35.493Z,11.50
2017-12-02T08:05:42.254Z,12.10
2017-12-02T08:06:49.051Z,11.70
2017-12-02T08:07:55.965Z,12.60
2017-12-02T08:09:02.810Z,12.10
2017-12-02T08:10:09.708Z,13.50
2017-12-02T08:11:16.488Z,14.30
2017-12-02T08:12:23.309Z,14.20
2017-12-02T08:13:30.140Z,13.20
2017-12-02T08:14:36.916Z,14.20
2017-12-02T08:15:43.736Z,13.70
2017-12-02T08:16:50.609Z,14.00
2017-12-02T08:17:57.396Z,14.50
2017-12-02T08:19:04.146Z,13.20
2017-12-02T08:20:11.060Z,20.40
2017-12-02T08:21:17.920Z,19.90
2017-12-02T08:22:24.658Z,16.90
2017-12-02T08:23:31.451Z,16.00
2017-12-02T08:24:38.192Z,14.80
2017-12-02T08:25:44.997Z,14.00
2017-12-02T08:26:51.728Z,13.40
2017-12-02T08:27:58.516Z,13.70
2017-12-02T08:29:05.280Z,12.90
2017-12-02T08:30:12.092Z,15.10
2017-12-02T08:31:20.042Z,14.70
2017-12-02T08:32:25.873Z,15.20
2017-12-02T08:33:32.650Z,15.70
2017-12-02T08:34:39.455Z,14.80
2017-12-02T08:35:46.184Z,14.70
2017-12-02T08:36:52.955Z,14.40
2017-12-02T08:37:59.821Z,14.20
2017-12-02T08:39:06.632Z,14.80
2017-12-02T08:40:13.532Z,15.10
2017-12-02T08:41:20.332Z,15.70
2017-12-02T08:42:27.111Z,14.80
2017-12-02T08:43:33.897Z,14.10
2017-12-02T08:44:40.676Z,14.30
2017-12-02T08:45:47.492Z,14.20
2017-12-02T08:46:54.206Z,13.90
2017-12-02T08:48:00.977Z,15.60
2017-12-02T08:49:07.785Z,14.70
2017-12-02T08:50:14.643Z,15.00
2017-12-02T08:51:21.418Z,15.10
2017-12-02T08:52:28.233Z,15.40
2017-12-02T08:53:35.026Z,15.50
2017-12-02T08:54:41.774Z,14.00
2017-12-02T08:55:48.672Z,16.20
2017-12-02T08:56:55.497Z,15.50
2017-12-02T08:58:02.241Z,15.80
2017-12-02T08:59:09.093Z,16.00
2017-12-02T09:00:15.869Z,16.30
2017-12-02T09:01:23.006Z,17.20
2017-12-02T09:02:29.761Z,15.60
2017-12-02T09:03:36.447Z,15.40
2017-12-02T09:04:43.244Z,15.70
2017-12-02T09:05:50.049Z,14.60
2017-12-02T09:06:56.845Z,15.00
2017-12-02T09:08:03.690Z,15.20
2017-12-02T09:09:10.529Z,16.30
2017-12-02T09:10:17.324Z,16.20
2017-12-02T09:11:24.136Z,16.60
2017-12-02T09:12:31.244Z,16.30
2017-12-02T09:13:38.056Z,16.30
2017-12-02T09:14:44.917Z,16.40
2017-12-02T09:15:51.692Z,15.30
2017-12-02T09:16:58.521Z,16.30
2017-12-02T09:18:05.178Z,16.10
2017-12-02T09:19:11.912Z,15.50
2017-12-02T09:20:18.760Z,15.30
2017-12-02T09:21:25.520Z,15.80
2017-12-02T09:22:32.339Z,14.70
2017-12-02T09:23:39.192Z,16.00
2017-12-02T09:24:46.020Z,16.60
2017-12-02T09:25:52.822Z,15.90
2017-12-02T09:26:59.721Z,17.00
2017-12-02T09:28:06.476Z,16.50
2017-12-02T09:29:13.432Z,15.90
2017-12-02T09:30:20.193Z,15.50
2017-12-02T09:31:26.932Z,16.00
2017-12-02T09:32:33.743Z,15.80
2017-12-02T09:33:40.542Z,14.30
2017-12-02T09:34:47.328Z,14.20
2017-12-02T09:35:54.127Z,17.80
2017-12-02T09:37:00.968Z,16.80
2017-12-02T09:38:07.887Z,16.70
2017-12-02T09:39:14.752Z,16.00
2017-12-02T09:40:21.574Z,15.50
2017-12-02T09:41:28.486Z,15.70
2017-12-02T09:42:35.275Z,17.30
2017-12-02T09:43:42.115Z,22.10
2017-12-02T09:44:48.979Z,22.40
2017-12-02T09:45:55.722Z,21.10
2017-12-02T09:47:02.584Z,22.90
2017-12-02T09:48:09.414Z,17.50
2017-12-02T09:49:16.165Z,16.50
2017-12-02T09:50:22.981Z,16.10
2017-12-02T09:51:29.860Z,15.60
2017-12-02T09:52:36.631Z,14.90
2017-12-02T09:53:43.411Z,20.20
2017-12-02T09:54:50.221Z,23.40
2017-12-02T09:55:57.008Z,23.60
2017-12-02T09:57:03.888Z,23.40
2017-12-02T09:58:10.652Z,23.50
2017-12-02T09:59:17.478Z,16.40
2017-12-02T10:00:24.280Z,16.60
2017-12-02T10:01:31.117Z,15.90
2017-12-02T10:02:38.009Z,23.80
2017-12-02T10:03:44.773Z,24.30
2017-12-02T10:04:51.617Z,23.70
2017-12-02T10:05:58.396Z,24.50
2017-12-02T10:07:05.131Z,22.90
2017-12-02T10:08:11.902Z,22.70
2017-12-02T10:09:18.679Z,23.00
2017-12-02T10:10:25.497Z,22.50
2017-12-02T10:11:32.205Z,23.70
2017-12-02T10:12:38.973Z,15.70
2017-12-02T10:13:45.725Z,15.50
2017-12-02T10:14:52.543Z,17.10
2017-12-02T10:15:59.365Z,15.70
2017-12-02T10:17:06.180Z,17.10
2017-12-02T10:18:12.990Z,17.00
2017-12-02T10:19:19.740Z,22.90
2017-12-02T10:20:26.619Z,24.00
2017-12-02T10:21:33.448Z,24.30
2017-12-02T10:22:40.356Z,24.00
2017-12-02T10:23:47.248Z,24.00
2017-12-02T10:24:54.057Z,24.80
2017-12-02T10:26:00.872Z,22.90
2017-12-02T10:27:07.676Z,24.50
2017-12-02T10:28:14.445Z,24.80
2017-12-02T10:29:21.256Z,17.10
2017-12-02T10:30:28.125Z,17.20
2017-12-02T10:31:34.988Z,16.20
2017-12-02T10:32:41.851Z,16.20
2017-12-02T10:33:48.688Z,16.20
2017-12-02T10:34:55.513Z,16.00
2017-12-02T10:36:02.377Z,16.70
2017-12-02T10:37:09.197Z,16.00
2017-12-02T10:38:16.158Z,16.70
2017-12-02T10:39:22.937Z,16.20
2017-12-02T10:40:29.693Z,17.70
2017-12-02T10:41:36.613Z,16.50
2017-12-02T10:42:43.376Z,15.80
2017-12-02T10:43:50.140Z,16.50
2017-12-02T10:44:56.954Z,16.10
2017-12-02T10:46:03.756Z,16.90
2017-12-02T10:47:10.543Z,16.10
2017-12-02T10:48:17.484Z,16.20
2017-12-02T10:49:24.270Z,15.10
2017-12-02T10:50:31.072Z,15.20
2017-12-02T10:51:38.109Z,16.90
2017-12-02T10:52:45.087Z,15.70
2017-12-02T10:53:51.908Z,16.50
2017-12-02T10:54:58.640Z,16.70
2017-12-02T10:56:05.355Z,17.00
2017-12-02T10:57:12.224Z,16.50
2017-12-02T10:58:19.040Z,16.20
2017-12-02T10:59:25.977Z,16.60
2017-12-02T11:00:32.880Z,16.80
2017-12-02T11:01:39.769Z,16.10
2017-12-02T11:02:46.484Z,15.40
2017-12-02T11:03:53.217Z,16.20
2017-12-02T11:04:59.953Z,17.20
2017-12-02T11:06:06.676Z,16.80
2017-12-02T11:07:13.351Z,16.10
2017-12-02T11:08:20.173Z,16.10
2017-12-02T11:09:27.112Z,15.00
2017-12-02T11:10:33.993Z,18.40
2017-12-02T11:11:40.679Z,15.70
2017-12-02T11:12:47.937Z,16.00
2017-12-02T11:13:54.147Z,15.00
2017-12-02T11:15:01.009Z,16.70
2017-12-02T11:16:07.787Z,16.10
2017-12-02T11:17:14.524Z,15.70
2017-12-02T11:18:21.285Z,15.90
2017-12-02T11:19:28.046Z,15.30
2017-12-02T11:20:34.829Z,15.60
2017-12-02T11:21:41.541Z,16.10
2017-12-02T11:22:48.275Z,16.10
2017-12-02T11:23:55.122Z,16.30
2017-12-02T11:25:01.866Z,15.50
2017-12-02T11:26:08.580Z,17.70
2017-12-02T11:27:15.389Z,16.20
2017-12-02T11:28:22.154Z,15.60
2017-12-02T11:29:28.880Z,16.80
2017-12-02T11:30:35.592Z,16.40
2017-12-02T11:31:42.358Z,16.00
2017-12-02T11:32:49.068Z,15.10
2017-12-02T11:33:55.856Z,15.80
2017-12-02T11:35:02.573Z,16.40
2017-12-02T11:36:09.289Z,15.00
2017-12-02T11:37:16.017Z,15.50
2017-12-02T11:38:22.941Z,15.60
2017-12-02T11:39:29.774Z,14.40
2017-12-02T11:40:36.570Z,15.70
2017-12-02T11:41:43.380Z,15.60
2017-12-02T11:42:50.076Z,15.50
2017-12-02T11:43:56.789Z,16.00
2017-12-02T11:45:03.512Z,17.30
2017-12-02T11:46:10.240Z,15.70
2017-12-02T11:47:17.103Z,15.90
2017-12-02T11:48:23.824Z,15.30
2017-12-02T11:49:30.544Z,15.80
2017-12-02T11:50:37.269Z,16.40
2017-12-02T11:51:44.018Z,16.10
2017-12-02T11:52:50.712Z,15.20
2017-12-02T11:53:57.501Z,15.80
2017-12-02T11:55:04.197Z,16.50
2017-12-02T11:56:10.921Z,15.00
2017-12-02T11:57:17.645Z,15.80
2017-12-02T11:58:24.341Z,15.40
2017-12-02T11:59:31.055Z,15.40
2017-12-02T12:00:37.860Z,16.00
2017-12-02T12:01:44.609Z,15.80
2017-12-02T12:02:51.304Z,15.90
2017-12-02T12:03:58.025Z,15.60
2017-12-02T12:05:04.746Z,14.70
2017-12-02T12:06:11.473Z,15.60
2017-12-02T12:07:18.305Z,14.90
2017-12-02T12:08:24.964Z,15.30
2017-12-02T12:09:31.680Z,16.10
2017-12-02T12:10:38.410Z,14.50
2017-12-02T12:11:45.136Z,14.60
2017-12-02T12:12:52.014Z,16.30
2017-12-02T12:13:58.666Z,15.80
2017-12-02T12:15:05.426Z,15.30
2017-12-02T12:16:12.153Z,15.80
2017-12-02T12:17:18.862Z,14.70
2017-12-02T12:18:25.557Z,15.30
2017-12-02T12:19:32.359Z,16.70
2017-12-02T12:20:39.220Z,15.30
2017-12-02T12:21:46.042Z,15.70
2017-12-02T12:22:52.803Z,14.80
2017-12-02T12:23:59.560Z,14.90
2017-12-02T12:25:06.288Z,16.20
2017-12-02T12:26:13.009Z,15.30
2017-12-02T12:27:19.744Z,15.10
2017-12-02T12:28:26.501Z,13.80
2017-12-02T12:29:33.212Z,14.50
2017-12-02T12:30:39.972Z,13.70
2017-12-02T12:31:46.665Z,15.20
2017-12-02T12:32:53.390Z,14.60
2017-12-02T12:34:00.069Z,12.80
2017-12-02T12:35:06.867Z,15.30
2017-12-02T12:36:13.592Z,14.30
2017-12-02T12:37:20.273Z,15.10
2017-12-02T12:38:27.053Z,15.00
2017-12-02T12:39:33.920Z,15.00
2017-12-02T12:40:40.608Z,13.90
2017-12-02T12:41:47.304Z,14.20
2017-12-02T12:42:54.025Z,13.90
2017-12-02T12:44:00.825Z,14.70
2017-12-02T12:45:07.626Z,14.60
2017-12-02T12:46:14.416Z,14.50
2017-12-02T12:47:21.150Z,14.30
2017-12-02T12:48:28.068Z,14.70
2017-12-02T12:49:34.803Z,14.40
2017-12-02T12:50:41.564Z,16.10
2017-12-02T12:51:48.257Z,14.20
2017-12-02T12:52:55.109Z,13.70
2017-12-02T12:54:01.811Z,15.50
2017-12-02T12:55:08.544Z,13.80
2017-12-02T12:56:15.312Z,14.50
2017-12-02T12:57:22.024Z,13.70
2017-12-02T12:58:29.151Z,15.20
2017-12-02T12:59:35.949Z,15.00
2017-12-02T13:00:42.712Z,15.20
2017-12-02T13:01:49.436Z,14.20
2017-12-02T13:02:56.210Z,14.00
2017-12-02T13:04:02.992Z,14.10
2017-12-02T13:05:09.730Z,14.80
2017-12-02T13:06:16.452Z,13.20
2017-12-02T13:07:23.157Z,13.70
2017-12-02T13:08:29.877Z,14.40
2017-12-02T13:09:36.717Z,15.80
2017-12-02T13:10:43.392Z,14.50
2017-12-02T13:11:50.112Z,14.00
2017-12-02T13:12:56.824Z,13.50
2017-12-02T13:14:03.533Z,13.60
2017-12-02T13:15:10.275Z,14.10
2017-12-02T13:16:17.449Z,13.90
2017-12-02T13:17:24.229Z,13.90
2017-12-02T13:18:30.945Z,15.50
2017-12-02T13:19:37.646Z,14.20
2017-12-02T13:20:44.364Z,14.10
2017-12-02T13:21:51.049Z,14.10
2017-12-02T13:22:57.825Z,14.40
2017-12-02T13:24:04.804Z,14.00
2017-12-02T13:25:12.855Z,13.90
2017-12-02T13:26:18.602Z,13.50
2017-12-02T13:27:25.353Z,13.00
2017-12-02T13:28:32.041Z,13.40
2017-12-02T13:29:38.753Z,12.90
2017-12-02T13:30:45.613Z,13.20
2017-12-02T13:31:52.364Z,13.80
2017-12-02T13:32:59.043Z,14.40
2017-12-02T13:34:05.743Z,12.60
2017-12-02T13:35:12.425Z,11.70
2017-12-02T13:36:19.160Z,12.20
2017-12-02T13:37:25.861Z,13.80
2017-12-02T13:38:32.628Z,12.90
2017-12-02T13:39:39.401Z,14.30
2017-12-02T13:40:46.137Z,15.90
2017-12-02T13:41:52.909Z,13.70
2017-12-02T13:42:59.665Z,12.80
2017-12-02T13:44:06.429Z,12.90
2017-12-02T13:45:13.156Z,14.80
2017-12-02T13:46:19.911Z,15.70
2017-12-02T13:47:30.301Z,15.60
2017-12-02T13:48:33.574Z,13.20
2017-12-02T13:49:40.280Z,13.30
2017-12-02T13:50:47.052Z,12.70
2017-12-02T13:51:53.833Z,12.00
2017-12-02T13:53:00.601Z,12.60
2017-12-02T13:54:07.461Z,12.80
2017-12-02T13:55:14.225Z,13.60
2017-12-02T13:56:20.945Z,11.40
2017-12-02T13:57:28.049Z,12.60
2017-12-02T13:58:34.744Z,12.70
2017-12-02T13:59:46.628Z,12.30
2017-12-02T14:00:48.314Z,13.30
2017-12-02T14:01:55.098Z,11.00
2017-12-02T14:03:01.893Z,11.30
2017-12-02T14:04:08.685Z,11.40
2017-12-02T14:05:15.372Z,11.90
2017-12-02T14:06:22.141Z,11.80
2017-12-02T14:07:28.881Z,13.50
2017-12-02T14:08:35.788Z,12.40
2017-12-02T14:09:42.501Z,12.50
2017-12-02T14:10:49.285Z,12.10
2017-12-02T14:11:56.069Z,12.50
2017-12-02T14:13:02.784Z,12.20
2017-12-02T14:14:09.505Z,12.00
2017-12-02T14:15:16.188Z,12.30
2017-12-02T14:16:22.908Z,13.60
2017-12-02T14:17:29.626Z,12.70
2017-12-02T14:18:36.405Z,14.60
2017-12-02T14:19:43.116Z,14.60
2017-12-02T14:20:49.846Z,13.90
2017-12-02T14:21:56.562Z,11.30
2017-12-02T14:23:03.292Z,13.80
2017-12-02T14:24:10.098Z,14.40
2017-12-02T14:25:16.813Z,13.30
2017-12-02T14:26:23.525Z,14.50
2017-12-02T14:27:30.685Z,13.90
2017-12-02T14:28:37.428Z,13.60